Time;durP1;ratioP1;P1;durP2;ratioP2;P2;SDS_P1;SDS_P2;PMS_P1;PMS_P2;Temp;Humidity;BMP_temperature;BMP_pressure;BME280_temperature;BME280_humidity;BME280_pressure;Samples;Min_cycle;Max_cycle;Signal;HPM_P1;HPM_P2
2023/07/13 00:00:16;;;;;;;0.30;0.30;;;;;;;19.05;57.34;96828.47;29395;197;63005;-54
2023/07/13 00:00:47;;;;;;;0.30;0.30;;;;;;;19.03;57.32;96827.22;29395;286;63009;-53
2023/07/13 00:01:19;;;;;;;0.30;0.30;;;;;;;19.01;57.41;96835.81;29394;284;64009;-53
2023/07/13 00:01:50;;;;;;;0.30;0.30;;;;;;;19.01;57.45;96829.53;29394;257;64013;-54
2023/07/13 00:02:22;;;;;;;0.40;0.40;;;;;;;19.01;57.53;96830.31;29395;278;63006;-53
2023/07/13 00:02:53;;;;;;;0.30;0.30;;;;;;;19.06;56.92;96829.25;29395;442;63027;-53
2023/07/13 00:03:25;;;;;;;0.30;0.30;;;;;;;19.08;56.67;96826.94;29395;222;63017;-53
2023/07/13 00:03:59;;;;;;;0.30;0.30;;;;;;;19.13;56.64;96823.94;29395;267;63009;-58
2023/07/13 00:04:31;;;;;;;0.30;0.30;;;;;;;19.14;56.45;96828.31;29395;240;63004;-53
2023/07/13 00:05:03;;;;;;;0.30;0.30;;;;;;;19.15;56.21;96818.91;29395;259;63024;-53
2023/07/13 00:05:34;;;;;;;0.30;0.30;;;;;;;19.15;56.03;96818.91;29394;196;64004;-53
2023/07/13 00:06:05;;;;;;;0.30;0.30;;;;;;;19.22;55.48;96812.81;29395;259;63020;-53
2023/07/13 00:06:36;;;;;;;0.30;0.30;;;;;;;19.24;55.41;96811.31;29394;279;64009;-52
2023/07/13 00:07:09;;;;;;;0.30;0.30;;;;;;;19.23;55.51;96809.72;29395;328;63017;-53
2023/07/13 00:07:41;;;;;;;0.30;0.30;;;;;;;19.24;55.64;96816.81;29395;243;63005;-51
2023/07/13 00:08:12;;;;;;;0.30;0.30;;;;;;;19.25;55.48;96806.59;29395;197;63009;-53
2023/07/13 00:08:43;;;;;;;0.30;0.30;;;;;;;19.25;55.33;96812.91;29395;284;63005;-53
2023/07/13 00:09:17;;;;;;;0.30;0.30;;;;;;;19.21;55.51;96823.00;29395;221;63009;-53
2023/07/13 00:09:48;;;;;;;0.30;0.30;;;;;;;19.17;55.45;96816.59;29395;250;63005;-53
2023/07/13 00:10:20;;;;;;;0.40;0.40;;;;;;;19.17;55.63;96827.59;29395;196;63009;-52
2023/07/13 00:10:54;;;;;;;0.30;0.30;;;;;;;19.17;55.03;96827.59;29394;257;64004;-53
2023/07/13 00:11:25;;;;;;;0.30;0.30;;;;;;;19.16;55.13;96819.72;29395;453;63018;-53
2023/07/13 00:11:58;;;;;;;0.30;0.30;;;;;;;19.12;55.59;96819.59;29394;252;64009;-53
2023/07/13 00:12:34;;;;;;;0.30;0.30;;;;;;;19.13;55.51;96821.19;29395;200;63009;-53
2023/07/13 00:13:05;;;;;;;0.30;0.30;;;;;;;19.12;55.60;96816.84;29395;287;63004;-52
2023/07/13 00:13:39;;;;;;;0.30;0.30;;;;;;;19.13;55.41;96814.91;29395;267;63017;-53
2023/07/13 00:14:11;;;;;;;0.30;0.30;;;;;;;19.15;55.14;96812.59;29394;239;64009;-54
2023/07/13 00:14:42;;;;;;;0.30;0.30;;;;;;;19.15;55.19;96813.41;29395;258;63009;-53
2023/07/13 00:15:22;;;;;;;0.30;0.30;;;;;;;19.12;55.07;96816.84;29395;406;63012;-53
2023/07/13 00:15:54;;;;;;;0.30;0.30;;;;;;;19.14;54.44;96806.31;29417;308;63009;-54
2023/07/13 00:16:25;;;;;;;0.20;0.20;;;;;;;19.15;54.68;96813.41;29395;318;63005;-53
2023/07/13 00:16:56;;;;;;;0.30;0.30;;;;;;;19.14;54.87;96814.56;29395;221;63009;-55
2023/07/13 00:17:28;;;;;;;0.30;0.30;;;;;;;19.17;54.23;96800.09;29395;219;63015;-55
2023/07/13 00:18:00;;;;;;;0.75;0.75;;;;;;;19.19;54.14;96806.06;29395;217;63009;-56
2023/07/13 00:18:32;;;;;;;0.30;0.30;;;;;;;19.23;54.11;96800.66;29395;294;63011;-57
2023/07/13 00:19:03;;;;;;;0.30;0.30;;;;;;;19.23;53.82;96806.97;29395;269;63021;-52
2023/07/13 00:19:36;;;;;;;0.32;0.32;;;;;;;19.22;54.22;96801.81;29394;231;64009;-53
2023/07/13 00:20:09;;;;;;;0.30;0.30;;;;;;;19.22;53.47;96802.59;29394;317;64013;-53
2023/07/13 00:20:41;;;;;;;0.40;0.40;;;;;;;19.25;53.52;96793.66;29395;288;63009;-61
2023/07/13 00:21:12;;;;;;;0.30;0.30;;;;;;;19.25;53.14;96799.16;29395;307;63009;-52
2023/07/13 00:21:44;;;;;;;0.30;0.30;;;;;;;19.21;53.74;96800.22;29395;299;63005;-51
2023/07/13 00:22:15;;;;;;;0.30;0.30;;;;;;;19.17;53.77;96810.31;29394;205;64014;-54
2023/07/13 00:22:47;;;;;;;0.30;0.30;;;;;;;19.16;54.01;96808.69;29395;223;63011;-56
2023/07/13 00:23:18;;;;;;;0.30;0.30;;;;;;;19.15;54.08;96813.41;29395;241;63009;-54
2023/07/13 00:23:50;;;;;;;0.30;0.30;;;;;;;19.11;53.81;96808.94;29395;420;63005;-52
2023/07/13 00:24:23;;;;;;;0.30;0.30;;;;;;;19.06;53.91;96805.28;29395;214;63009;-58
2023/07/13 00:24:58;;;;;;;0.30;0.30;;;;;;;19.02;54.45;96811.88;29395;292;63005;-53
2023/07/13 00:25:29;;;;;;;0.30;0.30;;;;;;;19.00;54.40;96814.16;29395;283;63009;-54
2023/07/13 00:26:05;;;;;;;0.40;0.40;;;;;;;18.95;54.39;96814.41;29395;203;63004;-53
2023/07/13 00:26:36;;;;;;;0.30;0.30;;;;;;;18.92;54.60;96810.41;29395;228;63025;-53
2023/07/13 00:27:10;;;;;;;0.30;0.30;;;;;;;18.93;54.53;96813.97;29395;197;63004;-52
2023/07/13 00:27:43;;;;;;;0.30;0.30;;;;;;;18.92;54.13;96815.91;29394;279;64013;-53
2023/07/13 00:28:15;;;;;;;0.30;0.30;;;;;;;18.90;54.41;96817.41;29395;270;63014;-53
2023/07/13 00:28:46;;;;;;;0.40;0.40;;;;;;;18.92;54.70;96818.66;29395;296;63009;-53
2023/07/13 00:29:18;;;;;;;0.30;0.30;;;;;;;18.92;54.21;96815.91;29395;300;63005;-53
2023/07/13 00:29:49;;;;;;;0.30;0.30;;;;;;;18.90;54.37;96815.44;29395;259;63009;-52
2023/07/13 00:30:21;;;;;;;0.40;0.40;;;;;;;18.88;54.64;96819.69;29395;220;63005;-51
2023/07/13 00:30:52;;;;;;;0.30;0.30;;;;;;;18.86;54.76;96819.25;29395;206;63009;-52
2023/07/13 00:31:23;;;;;;;0.30;0.30;;;;;;;18.84;54.70;96816.03;29395;291;63009;-54
2023/07/13 00:31:54;;;;;;;0.30;0.30;;;;;;;18.81;55.14;96824.97;29395;197;63005;-52
2023/07/13 00:32:26;;;;;;;0.40;0.40;;;;;;;18.79;54.94;96816.28;29394;251;64009;-52
2023/07/13 00:32:57;;;;;;;0.30;0.30;;;;;;;18.74;55.39;96815.37;29394;448;64013;-55
2023/07/13 00:33:29;;;;;;;0.30;0.30;;;;;;;18.74;54.85;96817.31;29395;203;63004;-52
2023/07/13 00:34:00;;;;;;;0.40;0.40;;;;;;;18.77;54.73;96819.38;29395;294;63009;-54
2023/07/13 00:34:32;;;;;;;0.30;0.30;;;;;;;18.77;54.41;96815.81;29395;237;63004;-52
2023/07/13 00:35:04;;;;;;;0.30;0.30;;;;;;;18.75;54.69;96816.97;29395;230;63023;-56
2023/07/13 00:35:36;;;;;;;0.30;0.30;;;;;;;18.76;54.43;96820.50;29395;268;63004;-53
2023/07/13 00:36:08;;;;;;;0.30;0.30;;;;;;;18.77;54.64;96815.81;29395;268;63009;-53
2023/07/13 00:36:39;;;;;;;0.30;0.30;;;;;;;18.76;54.66;96817.75;29395;285;63005;-53
2023/07/13 00:37:11;;;;;;;0.40;0.40;;;;;;;18.77;54.64;96818.56;29395;197;63009;-52
2023/07/13 00:37:43;;;;;;;0.30;0.30;;;;;;;18.79;54.46;96816.28;29394;219;64009;-52
2023/07/13 00:38:14;;;;;;;0.40;0.40;;;;;;;18.80;54.11;96815.13;29395;277;63009;-52
2023/07/13 00:38:46;;;;;;;0.37;0.37;;;;;;;18.79;53.67;96808.03;29395;284;63005;-52
2023/07/13 00:39:17;;;;;;;0.30;0.30;;;;;;;18.77;54.19;96813.06;29395;315;63019;-56
2023/07/13 00:39:48;;;;;;;0.40;0.40;;;;;;;18.77;53.85;96815.81;29395;302;63004;-54
2023/07/13 00:40:20;;;;;;;0.30;0.30;;;;;;;18.75;53.96;96816.97;29395;287;63009;-57
2023/07/13 00:40:51;;;;;;;0.40;0.40;;;;;;;18.73;54.19;96824.75;29395;202;63004;-57
2023/07/13 00:41:23;;;;;;;0.40;0.40;;;;;;;18.69;54.52;96818.38;29395;296;63009;-57
2023/07/13 00:41:55;;;;;;;0.30;0.30;;;;;;;18.66;54.71;96819.06;29394;218;64009;-54
2023/07/13 00:42:27;;;;;;;0.30;0.30;;;;;;;18.66;54.84;96827.31;29395;197;63008;-53
2023/07/13 00:42:59;;;;;;;0.30;0.30;;;;;;;18.65;54.79;96827.66;29395;263;63004;-53
2023/07/13 00:43:31;;;;;;;0.30;0.30;;;;;;;18.62;55.29;96829.16;29395;284;63008;-53
2023/07/13 00:44:02;;;;;;;0.30;0.30;;;;;;;18.61;55.06;96824.81;29395;263;63005;-53
2023/07/13 00:44:33;;;;;;;0.30;0.30;;;;;;;18.59;55.28;96824.31;29394;292;64013;-54
2023/07/13 00:45:47;;;;;;;0.30;0.30;;;;;;;18.57;55.48;96826.59;29395;251;63005;-56
2023/07/13 00:46:24;;;;;;;0.30;0.30;;;;;;;18.55;55.62;96839.09;29394;210;64013;-53
2023/07/13 00:46:58;;;;;;;0.30;0.30;;;;;;;18.53;55.81;96841.38;29394;222;64009;-57
2023/07/13 00:47:30;;;;;;;0.30;0.30;;;;;;;18.53;56.95;96841.38;29395;230;63009;-52
2023/07/13 00:48:01;;;;;;;0.30;0.30;;;;;;;18.50;56.60;96842.88;29395;244;63004;-53
2023/07/13 00:48:38;;;;;;;0.30;0.30;;;;;;;18.48;56.99;96844.34;29395;274;63027;-53
2023/07/13 00:49:14;;;;;;;0.30;0.30;;;;;;;18.47;57.04;96838.06;29395;249;63004;-57
2023/07/13 00:49:46;;;;;;;0.30;0.30;;;;;;;18.44;57.49;96849.72;29395;197;63008;-54
2023/07/13 00:50:19;;;;;;;0.32;0.32;;;;;;;18.42;57.98;96852.03;29395;307;63004;-54
2023/07/13 00:50:55;;;;;;;0.30;0.30;;;;;;;18.38;58.25;96851.09;29395;253;63009;-53
2023/07/13 00:51:32;;;;;;;0.30;0.30;;;;;;;18.34;58.31;96847.47;29395;255;63016;-53
2023/07/13 00:52:08;;;;;;;0.30;0.30;;;;;;;18.30;58.40;96843.81;29394;294;64013;-54
2023/07/13 00:52:45;;;;;;;0.30;0.30;;;;;;;18.32;58.92;96849.75;29395;205;63005;-53
2023/07/13 00:53:17;;;;;;;0.40;0.40;;;;;;;18.31;57.89;96839.91;29395;229;63009;-53
2023/07/13 00:53:51;;;;;;;0.30;0.30;;;;;;;18.31;56.57;96845.41;29395;300;63016;-53
2023/07/13 00:54:29;;;;;;;0.30;0.30;;;;;;;18.30;57.07;96843.81;29394;308;64013;-53
2023/07/13 00:55:02;;;;;;;0.40;0.40;;;;;;;18.28;57.40;96846.09;29395;216;63004;-54
2023/07/13 00:55:35;;;;;;;0.40;0.40;;;;;;;18.24;57.72;96847.91;29395;222;63009;-56
2023/07/13 00:56:07;;;;;;;0.30;0.30;;;;;;;18.22;57.61;96847.47;29395;202;63004;-54
2023/07/13 00:56:41;;;;;;;0.40;0.40;;;;;;;18.21;58.04;96849.41;29395;224;63009;-53
2023/07/13 00:57:19;;;;;;;0.40;0.40;;;;;;;18.20;57.82;96844.25;29395;317;63004;-53
2023/07/13 00:57:50;;;;;;;0.30;0.30;;;;;;;18.17;59.73;96851.22;29395;320;63008;-53
2023/07/13 00:58:24;;;;;;;0.30;0.30;;;;;;;18.15;59.69;96859.00;29394;299;64009;-53
2023/07/13 00:58:57;;;;;;;0.30;0.30;;;;;;;18.12;59.46;96853.41;29395;202;63009;-53
2023/07/13 00:59:30;;;;;;;0.30;0.30;;;;;;;18.08;59.50;96859.56;29395;300;63005;-53
2023/07/13 01:00:08;;;;;;;0.30;0.30;;;;;;;18.05;60.23;96860.25;29395;225;63009;-54
2023/07/13 01:00:40;;;;;;;0.30;0.30;;;;;;;18.04;59.68;96858.66;29395;205;63005;-54
2023/07/13 01:01:12;;;;;;;0.30;0.30;;;;;;;18.03;59.64;96850.75;29395;253;63009;-54
2023/07/13 01:01:44;;;;;;;0.40;0.40;;;;;;;18.01;59.42;96853.87;29395;212;63005;-53
2023/07/13 01:02:16;;;;;;;0.30;0.30;;;;;;;18.02;59.76;96858.19;29394;252;64013;-54
2023/07/13 01:02:49;;;;;;;0.37;0.37;;;;;;;18.03;59.03;96859.78;29395;199;63004;-53
2023/07/13 01:03:20;;;;;;;0.30;0.30;;;;;;;18.04;59.58;96852.34;29395;271;63009;-52
2023/07/13 01:03:52;;;;;;;0.30;0.30;;;;;;;18.03;59.48;96857.03;29395;227;63009;-58
2023/07/13 01:04:25;;;;;;;0.30;0.30;;;;;;;18.03;59.75;96861.72;29395;220;63009;-53
2023/07/13 01:04:57;;;;;;;0.35;0.35;;;;;;;18.00;59.14;96860.50;29395;245;63004;-53
2023/07/13 01:05:28;;;;;;;0.40;0.40;;;;;;;17.98;59.60;96853.75;29395;201;63009;-55
2023/07/13 01:06:00;;;;;;;0.30;0.30;;;;;;;17.95;60.43;96857.97;29395;280;63005;-53
2023/07/13 01:06:31;;;;;;;0.40;0.40;;;;;;;17.94;60.26;96859.13;29395;291;63009;-53
2023/07/13 01:07:04;;;;;;;0.40;0.40;;;;;;;17.94;60.14;96861.84;29394;219;64005;-53
2023/07/13 01:07:36;;;;;;;0.37;0.37;;;;;;;17.94;60.28;96859.13;29394;197;64013;-53
2023/07/13 01:08:08;;;;;;;0.40;0.40;;;;;;;17.96;60.17;96862.31;29395;210;63005;-53
2023/07/13 01:08:40;;;;;;;0.32;0.32;;;;;;;17.95;60.98;96868.16;29395;212;63027;-53
2023/07/13 01:09:11;;;;;;;0.30;0.30;;;;;;;17.94;60.34;96861.84;29395;408;63005;-53
2023/07/13 01:09:46;;;;;;;0.30;0.30;;;;;;;17.95;60.60;96865.41;29395;259;63014;-52
2023/07/13 01:10:21;;;;;;;0.30;0.30;;;;;;;17.93;60.47;96863.00;29395;233;63004;-53
2023/07/13 01:10:58;;;;;;;0.30;0.30;;;;;;;17.93;60.56;96863.00;29395;197;63009;-53
2023/07/13 01:11:29;;;;;;;0.32;0.32;;;;;;;17.93;60.08;96860.25;29395;265;63004;-53
2023/07/13 01:12:01;;;;;;;0.30;0.30;;;;;;;17.93;59.92;96857.50;29394;283;64013;-53
2023/07/13 01:12:34;;;;;;;0.35;0.35;;;;;;;17.93;59.66;96852.03;29395;205;63004;-53
2023/07/13 01:13:08;;;;;;;0.40;0.40;;;;;;;17.94;59.62;96856.38;29395;204;63009;-53
2023/07/13 01:13:39;;;;;;;0.40;0.40;;;;;;;17.92;59.67;96861.41;29395;199;63005;-53
2023/07/13 01:14:10;;;;;;;0.30;0.30;;;;;;;17.92;59.56;96863.34;29395;250;63009;-53
2023/07/13 01:14:41;;;;;;;0.30;0.30;;;;;;;17.92;59.74;96864.16;29395;198;63010;-53
2023/07/13 01:15:43;;;;;;;0.30;0.30;;;;;;;17.91;60.26;96864.47;29394;264;64013;-56
2023/07/13 01:16:22;;;;;;;0.30;0.30;;;;;;;17.89;58.18;96856.59;29416;198;64013;-52
2023/07/13 01:16:55;;;;;;;0.40;0.40;;;;;;;17.89;59.95;96864.81;29394;224;63998;-53
2023/07/13 01:17:31;;;;;;;0.40;0.40;;;;;;;17.88;59.23;96860.47;29395;222;63027;-53
2023/07/13 01:18:04;;;;;;;0.30;0.30;;;;;;;17.88;59.37;96863.22;29395;333;63004;-53
2023/07/13 01:18:36;;;;;;;0.30;0.30;;;;;;;17.89;59.26;96858.53;29395;197;63009;-53
2023/07/13 01:19:17;;;;;;;0.30;0.30;;;;;;;17.88;58.79;96854.97;29395;218;63004;-53
2023/07/13 01:19:48;;;;;;;0.30;0.30;;;;;;;17.87;58.59;96847.88;29416;290;64013;-52
2023/07/13 01:20:19;;;;;;;0.32;0.32;;;;;;;17.88;58.71;96852.25;29394;299;64008;-53
2023/07/13 01:20:55;;;;;;;0.40;0.40;;;;;;;17.90;58.92;96857.38;29395;302;63009;-53
2023/07/13 01:21:28;;;;;;;0.40;0.40;;;;;;;17.92;58.55;96855.91;29394;210;64009;-53
2023/07/13 01:21:59;;;;;;;0.32;0.32;;;;;;;17.93;58.21;96857.50;29395;221;63009;-53
2023/07/13 01:22:31;;;;;;;0.30;0.30;;;;;;;17.93;57.71;96846.53;29395;234;63005;-53
2023/07/13 01:23:08;;;;;;;0.32;0.32;;;;;;;17.93;57.76;96852.03;29395;203;63009;-56
2023/07/13 01:23:40;;;;;;;0.40;0.40;;;;;;;17.94;58.34;96853.63;29395;203;63005;-52
2023/07/13 01:24:11;;;;;;;0.40;0.40;;;;;;;17.91;57.65;96848.81;29394;196;64013;-53
2023/07/13 01:24:46;;;;;;;0.30;0.30;;;;;;;17.93;58.37;96854.78;29396;214;63005;-53
2023/07/13 01:25:17;;;;;;;0.40;0.40;;;;;;;17.93;58.17;96852.03;29395;271;63009;-56
2023/07/13 01:25:49;;;;;;;0.35;0.35;;;;;;;17.94;58.20;96853.63;29395;287;63004;-54
2023/07/13 01:26:20;;;;;;;0.30;0.30;;;;;;;17.94;58.25;96859.13;29395;361;63009;-53
2023/07/13 01:26:51;;;;;;;0.40;0.40;;;;;;;17.95;58.49;96860.72;29395;196;63004;-53
2023/07/13 01:27:25;;;;;;;0.40;0.40;;;;;;;17.93;58.83;96856.72;29395;361;63008;-53
2023/07/13 01:27:57;;;;;;;0.30;0.30;;;;;;;17.92;58.89;96861.41;29395;334;63004;-53
2023/07/13 01:28:29;;;;;;;0.40;0.40;;;;;;;17.91;58.45;96854.31;29395;307;63009;-53
2023/07/13 01:29:00;;;;;;;0.30;0.30;;;;;;;17.89;58.57;96851.09;29394;235;64009;-53
2023/07/13 01:29:32;;;;;;;0.40;0.40;;;;;;;17.88;58.51;96860.47;29395;275;63009;-54
2023/07/13 01:30:05;;;;;;;0.40;0.40;;;;;;;17.86;59.12;96860.00;29395;235;63005;-53
2023/07/13 01:30:39;;;;;;;0.40;0.40;;;;;;;17.85;58.98;96861.16;29395;211;63009;-53
2023/07/13 01:31:11;;;;;;;0.40;0.40;;;;;;;17.83;59.49;96857.94;29395;211;63005;-53
2023/07/13 01:31:44;;;;;;;0.37;0.37;;;;;;;17.82;59.20;96859.09;29395;230;63009;-53
2023/07/13 01:32:22;;;;;;;0.40;0.40;;;;;;;17.80;59.86;96861.37;29395;221;63017;-53
2023/07/13 01:32:53;;;;;;;0.40;0.40;;;;;;;17.80;59.62;96855.06;29395;219;63009;-54
2023/07/13 01:33:25;;;;;;;0.50;0.50;;;;;;;17.79;59.46;96861.72;29395;229;63010;-52
2023/07/13 01:33:57;;;;;;;0.30;0.30;;;;;;;17.75;58.96;96856.09;29395;207;63009;-54
2023/07/13 01:34:28;;;;;;;0.40;0.40;;;;;;;17.72;59.00;96863.06;29394;242;64008;-52
2023/07/13 01:35:00;;;;;;;0.40;0.40;;;;;;;17.72;59.09;96862.25;29395;228;63016;-52
2023/07/13 01:35:31;;;;;;;0.40;0.40;;;;;;;17.71;59.44;96861.44;29395;228;63004;-54
2023/07/13 01:36:03;;;;;;;0.40;0.40;;;;;;;17.70;59.53;96861.78;29395;204;63009;-54
2023/07/13 01:36:34;;;;;;;0.40;0.40;;;;;;;17.68;59.47;96861.31;29395;199;63005;-53
2023/07/13 01:37:06;;;;;;;0.40;0.40;;;;;;;17.68;60.24;96872.31;29395;293;63009;-53
2023/07/13 01:37:37;;;;;;;0.40;0.40;;;;;;;17.64;60.41;96866.69;29395;249;63005;-53
2023/07/13 01:38:09;;;;;;;0.40;0.40;;;;;;;17.62;60.41;96866.22;29395;245;63009;-53
2023/07/13 01:38:44;;;;;;;0.40;0.40;;;;;;;17.60;60.11;96865.75;29395;216;63005;-52
2023/07/13 01:39:16;;;;;;;0.40;0.40;;;;;;;17.59;60.35;96863.34;29395;224;63009;-53
2023/07/13 01:39:48;;;;;;;0.30;0.30;;;;;;;17.56;60.64;96867.56;29394;302;64009;-53
2023/07/13 01:40:20;;;;;;;0.40;0.40;;;;;;;17.55;60.54;96867.91;29395;218;63009;-55
2023/07/13 01:40:52;;;;;;;0.30;0.30;;;;;;;17.53;60.90;96859.22;29395;256;63004;-53
2023/07/13 01:41:24;;;;;;;0.40;0.40;;;;;;;17.50;60.85;96865.38;29395;196;63014;-53
2023/07/13 01:41:56;;;;;;;0.40;0.40;;;;;;;17.47;61.06;96861.37;29395;233;63004;-52
2023/07/13 01:42:28;;;;;;;0.40;0.40;;;;;;;17.47;61.38;96866.06;29395;204;63009;-53
2023/07/13 01:43:00;;;;;;;0.32;0.32;;;;;;;17.43;61.37;96866.72;29395;220;63005;-53
2023/07/13 01:43:32;;;;;;;0.30;0.30;;;;;;;17.41;61.38;96871.75;29395;238;63009;-53
2023/07/13 01:44:04;;;;;;;0.30;0.30;;;;;;;17.37;61.02;96862.56;29395;206;63010;-54
2023/07/13 01:44:35;;;;;;;0.37;0.37;;;;;;;17.38;60.65;96866.13;29395;301;63009;-53
2023/07/13 01:45:08;;;;;;;0.30;0.30;;;;;;;17.38;60.98;96869.66;29394;213;64009;-53
2023/07/13 01:45:39;;;;;;;0.40;0.40;;;;;;;17.38;60.96;96866.94;29395;222;63009;-53
2023/07/13 01:46:10;;;;;;;0.40;0.40;;;;;;;17.35;61.51;96862.13;29395;209;63011;-53
2023/07/13 01:46:42;;;;;;;0.40;0.40;;;;;;;17.32;61.14;96865.56;29395;213;63019;-53
2023/07/13 01:47:13;;;;;;;0.40;0.40;;;;;;;17.31;61.24;96863.16;29395;227;63004;-53
2023/07/13 01:47:44;;;;;;;0.40;0.40;;;;;;;17.30;61.52;96862.34;29394;255;64009;-52
2023/07/13 01:48:15;;;;;;;0.32;0.32;;;;;;;17.30;61.29;96861.53;29395;222;63016;-53
2023/07/13 01:48:46;;;;;;;0.40;0.40;;;;;;;17.28;60.92;96867.38;29395;301;63018;-57
2023/07/13 01:49:18;;;;;;;0.40;0.40;;;;;;;17.28;61.12;96859.13;29395;239;63004;-55
2023/07/13 01:49:53;;;;;;;0.40;0.40;;;;;;;17.27;61.41;96857.53;29395;239;63008;-52
2023/07/13 01:50:26;;;;;;;0.40;0.40;;;;;;;17.26;62.48;96866.09;29394;219;64009;-52
2023/07/13 01:50:57;;;;;;;0.30;0.30;;;;;;;17.24;62.14;96862.88;29395;220;63009;-56
2023/07/13 01:51:28;;;;;;;0.40;0.40;;;;;;;17.21;61.45;96863.56;29395;220;63005;-54
2023/07/13 01:51:59;;;;;;;0.40;0.40;;;;;;;17.20;61.54;96862.75;29395;216;63021;-54
2023/07/13 01:52:30;;;;;;;0.40;0.40;;;;;;;17.18;61.93;96859.53;29395;215;63005;-53
2023/07/13 01:53:02;;;;;;;0.35;0.35;;;;;;;17.19;61.51;96861.16;29395;291;63009;-53
2023/07/13 01:53:33;;;;;;;0.40;0.40;;;;;;;17.20;61.13;96857.28;29395;231;63005;-53
2023/07/13 01:54:05;;;;;;;0.40;0.40;;;;;;;17.18;61.53;96854.06;29395;212;63009;-54
2023/07/13 01:54:36;;;;;;;0.40;0.40;;;;;;;17.15;60.96;96848.44;29395;236;63004;-53
2023/07/13 01:55:09;;;;;;;0.32;0.32;;;;;;;17.19;61.08;96857.59;29395;363;63009;-53
2023/07/13 01:55:42;;;;;;;0.40;0.40;;;;;;;17.19;61.52;96860.34;29394;218;64009;-53
2023/07/13 01:56:13;;;;;;;0.40;0.40;;;;;;;17.16;60.87;96861.81;29395;210;63009;-53
2023/07/13 01:56:45;;;;;;;0.40;0.40;;;;;;;17.14;60.76;96858.59;29394;205;64008;-53
2023/07/13 01:57:16;;;;;;;0.30;0.30;;;;;;;17.14;62.43;96858.59;29395;218;63008;-53
2023/07/13 01:57:47;;;;;;;0.40;0.40;;;;;;;17.12;61.78;96869.09;29395;227;63005;-53
2023/07/13 01:58:18;;;;;;;0.40;0.40;;;;;;;17.12;61.53;96860.87;29395;249;63009;-53
2023/07/13 01:58:50;;;;;;;0.40;0.40;;;;;;;17.11;61.72;96870.25;29395;216;63005;-53
2023/07/13 01:59:21;;;;;;;0.30;0.30;;;;;;;17.08;61.70;96862.69;29395;221;63009;-53
2023/07/13 01:59:52;;;;;;;0.40;0.40;;;;;;;17.10;61.60;96857.66;29395;227;63017;-53
2023/07/13 02:00:24;;;;;;;0.30;0.30;;;;;;;17.11;61.57;96859.28;29395;238;63024;-53
2023/07/13 02:00:56;;;;;;;0.40;0.40;;;;;;;17.11;61.61;96859.28;29395;220;63005;-53
2023/07/13 02:01:27;;;;;;;0.30;0.30;;;;;;;17.07;61.76;96864.62;29395;257;63009;-53
2023/07/13 02:01:58;;;;;;;0.40;0.40;;;;;;;17.08;61.67;96870.91;29394;212;64009;-53
2023/07/13 02:02:29;;;;;;;0.40;0.40;;;;;;;17.07;62.25;96870.09;29394;197;64013;-53
2023/07/13 02:03:02;;;;;;;0.30;0.30;;;;;;;17.05;61.99;96872.38;29394;232;64009;-53
2023/07/13 02:03:33;;;;;;;0.35;0.35;;;;;;;16.99;60.51;96861.94;29395;239;63009;-53
2023/07/13 02:04:05;;;;;;;0.40;0.40;;;;;;;16.96;62.29;96865.38;29395;245;63004;-52
2023/07/13 02:04:36;;;;;;;0.35;0.35;;;;;;;16.95;61.51;96866.53;29395;222;63008;-53
2023/07/13 02:05:08;;;;;;;0.40;0.40;;;;;;;16.94;61.69;96873.12;29394;198;64009;-56
2023/07/13 02:05:40;;;;;;;0.40;0.40;;;;;;;16.95;61.94;96872.00;29395;314;63005;-53
2023/07/13 02:06:11;;;;;;;0.30;0.30;;;;;;;16.95;62.03;96872.00;29395;257;63005;-53
2023/07/13 02:06:42;;;;;;;0.40;0.40;;;;;;;16.94;61.98;96870.41;29395;196;63009;-53
2023/07/13 02:07:15;;;;;;;0.40;0.40;;;;;;;16.93;61.70;96868.78;29395;224;63020;-53
2023/07/13 02:07:46;;;;;;;0.40;0.40;;;;;;;16.93;61.81;96863.31;29395;267;63009;-53
2023/07/13 02:08:17;;;;;;;0.40;0.40;;;;;;;16.94;62.47;96871.19;29394;220;64009;-53
2023/07/13 02:08:49;;;;;;;0.37;0.37;;;;;;;16.93;63.06;96868.78;29395;221;63016;-53
2023/07/13 02:09:20;;;;;;;0.40;0.40;;;;;;;16.91;62.96;96866.38;29395;296;63004;-53
2023/07/13 02:09:51;;;;;;;0.62;0.62;;;;;;;16.91;62.55;96868.31;29395;211;63009;-56
2023/07/13 02:10:22;;;;;;;0.40;0.40;;;;;;;16.88;61.60;96861.56;29395;218;63006;-55
2023/07/13 02:10:53;;;;;;;0.30;0.30;;;;;;;16.86;62.50;96868.50;29395;240;63016;-57
2023/07/13 02:11:32;;;;;;;0.32;0.32;;;;;;;16.86;62.60;96874.00;29395;223;63004;-53
2023/07/13 02:12:04;;;;;;;0.40;0.40;;;;;;;16.88;62.36;96874.47;29395;229;63009;-54
2023/07/13 02:12:36;;;;;;;0.32;0.32;;;;;;;16.90;63.35;96877.69;29394;226;64009;-53
2023/07/13 02:13:08;;;;;;;0.30;0.30;;;;;;;16.89;62.63;96874.13;29395;220;63009;-55
2023/07/13 02:13:39;;;;;;;0.30;0.30;;;;;;;16.87;62.37;96875.59;29395;204;63005;-53
2023/07/13 02:14:10;;;;;;;0.30;0.30;;;;;;;16.87;62.83;96870.91;29395;256;63009;-56
2023/07/13 02:14:42;;;;;;;0.35;0.35;;;;;;;16.87;62.46;96881.88;29395;262;63005;-53
2023/07/13 02:15:13;;;;;;;0.40;0.40;;;;;;;16.87;62.25;96884.63;29395;241;63009;-56
2023/07/13 02:15:45;;;;;;;0.30;0.30;;;;;;;16.89;63.04;96878.81;29394;245;64009;-53
2023/07/13 02:16:16;;;;;;;0.30;0.30;;;;;;;16.87;62.97;96876.41;29395;291;63009;-53
2023/07/13 02:16:48;;;;;;;0.30;0.30;;;;;;;16.87;62.68;96875.59;29395;205;63004;-53
2023/07/13 02:17:19;;;;;;;0.30;0.30;;;;;;;16.88;63.05;96879.94;29395;212;63015;-54
2023/07/13 02:17:53;;;;;;;0.30;0.30;;;;;;;16.86;63.27;96872.06;29395;208;63004;-59
2023/07/13 02:18:25;;;;;;;0.40;0.40;;;;;;;16.85;63.17;96878.69;29394;296;64013;-53
2023/07/13 02:18:56;;;;;;;0.30;0.30;;;;;;;16.87;62.57;96870.13;29394;274;64004;-53
2023/07/13 02:19:28;;;;;;;0.30;0.30;;;;;;;16.87;61.77;96875.59;29394;214;64014;-53
2023/07/13 02:19:59;;;;;;;0.30;0.30;;;;;;;16.85;62.00;96880.62;29395;259;63001;-53
2023/07/13 02:20:30;;;;;;;0.40;0.40;;;;;;;16.85;62.42;96877.88;29395;219;63009;-53
2023/07/13 02:21:02;;;;;;;0.40;0.40;;;;;;;16.83;62.72;96877.41;29395;206;63005;-53
2023/07/13 02:21:34;;;;;;;0.40;0.40;;;;;;;16.83;63.04;96877.41;29395;204;63025;-53
2023/07/13 02:22:05;;;;;;;0.40;0.40;;;;;;;16.81;62.33;96874.19;29395;221;63005;-53
2023/07/13 02:22:36;;;;;;;0.40;0.40;;;;;;;16.82;62.02;96878.53;29395;219;63009;-54
2023/07/13 02:23:10;;;;;;;0.40;0.40;;;;;;;16.84;61.86;96876.25;29395;214;63005;-56
2023/07/13 02:23:41;;;;;;;0.40;0.40;;;;;;;16.87;61.80;96872.88;29395;223;63018;-54
2023/07/13 02:24:17;;;;;;;0.37;0.37;;;;;;;16.88;61.43;96869.78;29395;223;63004;-53
2023/07/13 02:24:49;;;;;;;0.40;0.40;;;;;;;16.89;61.51;96867.84;29394;193;64013;-54
2023/07/13 02:25:20;;;;;;;0.40;0.40;;;;;;;16.88;61.49;96877.22;29395;260;63007;-55
2023/07/13 02:25:56;;;;;;;0.40;0.40;;;;;;;16.87;61.45;96872.88;29395;253;63009;-54
2023/07/13 02:26:28;;;;;;;0.40;0.40;;;;;;;16.88;61.42;96871.72;29395;262;63000;-56
2023/07/13 02:26:59;;;;;;;0.40;0.40;;;;;;;16.86;61.50;96871.25;29395;233;63009;-53
2023/07/13 02:27:30;;;;;;;0.40;0.40;;;;;;;16.86;61.05;96874.00;29395;214;63005;-53
2023/07/13 02:28:02;;;;;;;0.40;0.40;;;;;;;16.88;61.01;96872.53;29395;202;63009;-53
2023/07/13 02:28:33;;;;;;;0.40;0.40;;;;;;;16.91;60.86;96871.06;29394;204;64000;-53
2023/07/13 02:29:06;;;;;;;0.40;0.40;;;;;;;16.93;60.32;96868.78;29395;197;63009;-53
2023/07/13 02:29:37;;;;;;;0.40;0.40;;;;;;;16.93;60.60;96868.78;29395;197;63005;-53
2023/07/13 02:30:10;;;;;;;0.30;0.30;;;;;;;16.94;60.39;96871.19;29395;229;63009;-53
2023/07/13 02:30:41;;;;;;;0.40;0.40;;;;;;;16.94;60.60;96868.47;29395;209;63005;-53
2023/07/13 02:31:15;;;;;;;0.40;0.40;;;;;;;16.97;60.51;96869.72;29394;202;64013;-53
2023/07/13 02:31:46;;;;;;;0.35;0.35;;;;;;;16.99;60.20;96878.41;29395;207;63004;-53
2023/07/13 02:32:18;;;;;;;0.40;0.40;;;;;;;16.99;59.95;96872.91;29395;196;63009;-53
2023/07/13 02:32:49;;;;;;;0.40;0.40;;;;;;;17.01;60.10;96870.63;29395;281;63004;-54
2023/07/13 02:33:20;;;;;;;0.40;0.40;;;;;;;17.01;60.03;96876.13;29395;234;63009;-53
2023/07/13 02:33:51;;;;;;;0.40;0.40;;;;;;;17.01;60.58;96870.63;29395;217;63004;-55
2023/07/13 02:34:23;;;;;;;0.40;0.40;;;;;;;17.02;60.39;96872.25;29394;260;64014;-53
2023/07/13 02:34:54;;;;;;;0.37;0.37;;;;;;;17.02;60.64;96872.25;29395;234;63001;-56